Time;durP1;ratioP1;P1;durP2;ratioP2;P2;SDS_P1;SDS_P2;PMS_P1;PMS_P2;Temp;Humidity;BMP_temperature;BMP_pressure;BME280_temperature;BME280_humidity;BME280_pressure;Samples;Min_cycle;Max_cycle;Signal;HPM_P1;HPM_P2
2023/04/20 00:01:23;;;;;;;39.72;28.25;;;13.50;99.90;;;;;;5035488;28;20385;-73
2023/04/20 00:04:28;;;;;;;39.38;28.35;;;13.50;99.90;;;;;;5032861;28;20044;-73
2023/04/20 00:07:34;;;;;;;39.95;28.35;;;13.40;99.90;;;;;;5033892;28;20124;-72
2023/04/20 00:10:38;;;;;;;37.85;27.77;;;13.30;99.90;;;;;;5033814;28;20049;-73
2023/04/20 00:13:42;;;;;;;40.45;28.23;;;;;;;;;;5033724;28;20523;-73
2023/04/20 00:16:47;;;;;;;45.95;28.63;;;13.20;99.90;;;;;;5033455;28;20045;-73
2023/04/20 00:19:52;;;;;;;42.25;27.70;;;13.10;99.90;;;;;;5033413;28;20056;-72
2023/04/20 00:22:56;;;;;;;38.42;26.80;;;13.10;99.90;;;;;;5033242;28;20400;-73
2023/04/20 00:26:00;;;;;;;36.03;26.77;;;13.50;99.90;;;;;;5033341;28;20040;-73
2023/04/20 00:29:04;;;;;;;36.58;27.27;;;13.20;99.90;;;;;;5033401;28;20049;-73
2023/04/20 00:32:08;;;;;;;37.10;26.90;;;13.00;99.90;;;;;;5032522;28;20048;-73
2023/04/20 00:35:12;;;;;;;36.83;25.48;;;13.00;99.90;;;;;;5033005;28;20417;-73
2023/04/20 00:38:16;;;;;;;32.65;22.75;;;13.20;99.90;;;;;;5033350;28;20048;-73
2023/04/20 00:41:21;;;;;;;29.80;22.42;;;;;;;;;;5033292;28;20049;-73
2023/04/20 00:44:24;;;;;;;32.65;22.00;;;13.30;99.90;;;;;;5033155;28;20049;-74
2023/04/20 00:47:28;;;;;;;31.23;21.40;;;13.30;99.90;;;;;;5033084;28;20052;-73
2023/04/20 00:50:33;;;;;;;31.05;21.70;;;13.30;99.90;;;;;;5032008;28;20385;-73
2023/04/20 00:53:37;;;;;;;32.17;21.85;;;13.30;99.90;;;;;;5032160;28;20040;-73
2023/04/20 00:56:41;;;;;;;32.30;21.83;;;13.20;99.90;;;;;;5032312;28;20052;-73
2023/04/20 00:59:45;;;;;;;30.17;20.98;;;13.40;99.90;;;;;;5030883;28;20036;-73
2023/04/20 01:02:51;;;;;;;27.52;21.50;;;;;;;;;;5031104;28;20064;-73
2023/04/20 01:05:56;;;;;;;31.25;21.00;;;13.40;99.90;;;;;;5031564;28;20040;-73
2023/04/20 01:09:01;;;;;;;34.47;23.45;;;13.00;99.90;;;;;;5031745;28;20044;-73
2023/04/20 01:12:09;;;;;;;33.17;23.25;;;12.60;99.90;;;;;;5030709;28;20044;-73
2023/04/20 01:15:14;;;;;;;32.60;21.90;;;12.40;99.90;;;;;;5031511;28;20052;-74
2023/04/20 01:18:18;;;;;;;31.92;23.13;;;;;;;;;;5030925;28;20361;-73
2023/04/20 01:21:23;;;;;;;31.17;22.35;;;12.60;99.90;;;;;;5030675;28;20048;-73
2023/04/20 01:24:27;;;;;;;33.20;23.42;;;12.80;99.90;;;;;;5031356;28;20040;-73
2023/04/20 01:27:31;;;;;;;33.95;22.92;;;;;;;;;;5030854;28;20409;-73
2023/04/20 01:30:38;;;;;;;32.00;22.38;;;12.70;99.90;;;;;;5030466;28;20401;-73
2023/04/20 01:33:41;;;;;;;37.67;23.75;;;12.70;99.90;;;;;;5030108;28;20052;-73
2023/04/20 01:36:47;;;;;;;32.10;22.50;;;12.80;99.90;;;;;;5031234;28;20049;-73
2023/04/20 01:39:51;;;;;;;31.38;22.17;;;;;;;;;;5030447;28;20044;-73
2023/04/20 01:42:58;;;;;;;32.00;21.70;;;12.90;99.90;;;;;;5030699;28;20064;-73
2023/04/20 01:46:02;;;;;;;25.92;20.08;;;;;;;;;;5030421;28;20044;-73
2023/04/20 01:49:07;;;;;;;28.38;20.17;;;12.80;99.90;;;;;;5030246;28;20076;-73
2023/04/20 01:52:11;;;;;;;31.13;22.15;;;12.80;99.90;;;;;;5031054;28;20041;-73
2023/04/20 01:55:16;;;;;;;38.13;23.73;;;;;;;;;;5030673;28;20072;-73
2023/04/20 01:58:19;;;;;;;34.90;24.65;;;12.90;99.90;;;;;;5030975;28;20052;-73
2023/04/20 02:01:23;;;;;;;40.22;24.38;;;12.90;99.90;;;;;;5030096;28;20048;-73
2023/04/20 02:04:27;;;;;;;37.10;24.10;;;;;;;;;;5030017;28;20125;-73
2023/04/20 02:07:31;;;;;;;35.60;25.17;;;12.80;99.90;;;;;;5030850;28;20064;-73
2023/04/20 02:10:40;;;;;;;35.95;25.02;;;12.90;99.90;;;;;;5030112;28;20045;-73
2023/04/20 02:13:46;;;;;;;38.15;27.23;;;12.70;99.90;;;;;;5030073;28;20048;-72
2023/04/20 02:16:52;;;;;;;39.45;26.27;;;;;;;;;;5030859;28;20045;-74
2023/04/20 02:19:55;;;;;;;38.42;26.73;;;12.50;99.90;;;;;;5030061;28;20060;-74
2023/04/20 02:22:59;;;;;;;37.85;26.40;;;12.50;99.90;;;;;;5029754;28;20045;-72
2023/04/20 02:26:04;;;;;;;42.17;25.83;;;12.30;99.90;;;;;;5030973;28;20060;-72
2023/04/20 02:29:09;;;;;;;38.58;26.42;;;;;;;;;;5030513;28;20061;-73
2023/04/20 02:32:13;;;;;;;42.67;27.15;;;;;;;;;;5030575;28;20044;-73
2023/04/20 02:35:19;;;;;;;39.00;27.23;;;12.00;99.90;;;;;;5030413;28;20052;-73
2023/04/20 02:38:23;;;;;;;40.20;27.02;;;11.90;99.90;;;;;;5029571;28;20361;-73
2023/04/20 02:41:28;;;;;;;40.08;27.40;;;11.80;99.90;;;;;;5030557;28;20049;-72
2023/04/20 02:44:32;;;;;;;44.97;29.33;;;11.80;99.90;;;;;;5030240;28;20049;-73
2023/04/20 02:47:36;;;;;;;43.38;28.80;;;;;;;;;;5033496;28;20052;-73
2023/04/20 02:50:41;;;;;;;47.17;29.20;;;;;;;;;;5033633;28;20041;-73
2023/04/20 02:53:52;;;;;;;43.80;26.73;;;11.70;99.90;;;;;;5033627;28;20539;-73
2023/04/20 02:57:02;;;;;;;37.55;23.92;;;12.00;99.90;;;;;;5023147;28;20040;-73
2023/04/20 03:00:08;;;;;;;31.17;21.85;;;11.70;99.90;;;;;;5033156;28;20057;-73
2023/04/20 03:03:30;;;;;;;33.17;21.63;;;12.00;99.90;;;;;;5033034;28;20048;-73
2023/04/20 03:06:35;;;;;;;36.75;23.17;;;12.10;99.90;;;;;;5033452;28;20056;-73
2023/04/20 03:09:40;;;;;;;32.80;22.05;;;11.30;99.90;;;;;;5033209;28;20072;-73
2023/04/20 03:12:49;;;;;;;33.40;23.77;;;11.30;99.90;;;;;;5034186;28;20049;-73
2023/04/20 03:16:17;;;;;;;33.65;22.70;;;;;;;;;;5034144;28;20064;-73
2023/04/20 03:19:25;;;;;;;37.38;23.80;;;11.80;99.90;;;;;;5033789;28;20056;-73
2023/04/20 03:22:28;;;;;;;35.17;23.38;;;11.60;99.90;;;;;;5033063;28;20464;-74
2023/04/20 03:25:35;;;;;;;32.53;22.27;;;11.80;99.90;;;;;;5033000;28;20045;-74
2023/04/20 03:28:48;;;;;;;31.60;20.97;;;12.70;99.90;;;;;;5033058;28;20056;-74
2023/04/20 03:31:56;;;;;;;30.77;21.52;;;12.00;99.90;;;;;;5033009;28;20033;-74
2023/04/20 03:35:00;;;;;;;30.08;22.02;;;12.10;99.90;;;;;;5032734;28;20048;-73
2023/04/20 03:38:04;;;;;;;30.73;20.88;;;;;;;;;;5032741;28;20044;-74
2023/04/20 03:41:08;;;;;;;34.50;22.13;;;;;;;;;;5033378;28;20049;-73
2023/04/20 03:44:13;;;;;;;29.63;21.48;;;11.80;99.90;;;;;;5032535;28;20049;-73
2023/04/20 03:47:17;;;;;;;32.47;21.98;;;11.80;99.90;;;;;;5033538;28;20040;-74
2023/04/20 03:50:21;;;;;;;33.05;22.33;;;11.80;99.90;;;;;;5033145;28;20053;-74
2023/04/20 03:53:29;;;;;;;33.33;20.63;;;;;;;;;;5032433;28;20048;-74
2023/04/20 03:56:34;;;;;;;39.92;21.90;;;11.70;99.90;;;;;;5031741;28;20404;-74
2023/04/20 03:59:41;;;;;;;32.17;22.02;;;11.30;99.90;;;;;;5032339;28;20052;-73
2023/04/20 04:02:46;;;;;;;30.38;20.60;;;11.60;99.90;;;;;;5032179;28;20060;-73
2023/04/20 04:05:54;;;;;;;30.23;20.92;;;11.30;99.90;;;;;;5032092;28;20068;-73
2023/04/20 04:08:58;;;;;;;29.30;20.10;;;11.40;99.90;;;;;;5032346;28;20053;-73
2023/04/20 04:12:03;;;;;;;28.50;19.90;;;11.40;99.90;;;;;;5032042;28;20064;-73
2023/04/20 04:15:08;;;;;;;29.08;18.50;;;11.50;99.90;;;;;;5032825;28;20052;-73
2023/04/20 04:18:19;;;;;;;24.63;17.67;;;11.50;99.90;;;;;;5032081;28;20053;-73
2023/04/20 04:21:23;;;;;;;25.90;17.60;;;12.10;99.90;;;;;;5032112;28;20650;-73
2023/04/20 04:24:33;;;;;;;25.65;17.23;;;11.50;99.90;;;;;;5032112;28;20503;-73
2023/04/20 04:27:45;;;;;;;23.02;16.83;;;;;;;;;;5031654;28;20048;-73
2023/04/20 04:30:51;;;;;;;26.90;17.83;;;11.50;99.90;;;;;;5031992;28;20196;-73
2023/04/20 04:33:55;;;;;;;29.30;17.38;;;;;;;;;;5031786;28;20048;-73
2023/04/20 04:37:15;;;;;;;28.40;18.02;;;11.60;99.90;;;;;;5031506;28;20052;-73
2023/04/20 04:40:26;;;;;;;24.85;17.77;;;11.60;99.90;;;;;;5031119;28;20045;-73
2023/04/20 04:43:32;;;;;;;24.83;17.77;;;12.40;99.90;;;;;;5031113;28;20052;-73
2023/04/20 04:46:56;;;;;;;29.48;18.90;;;;;;;;;;5031353;28;20068;-73
2023/04/20 04:50:04;;;;;;;32.03;20.98;;;11.80;99.90;;;;;;5031221;28;20045;-73
2023/04/20 04:53:09;;;;;;;33.45;22.02;;;11.80;99.90;;;;;;5032107;28;20350;-73
2023/04/20 04:56:14;;;;;;;33.28;20.33;;;;;;;;;;5031740;28;20500;-73
2023/04/20 04:59:18;;;;;;;27.67;19.33;;;12.20;99.90;;;;;;5031419;28;20068;-73
2023/04/20 05:02:22;;;;;;;29.52;19.08;;;12.50;99.90;;;;;;5031621;28;20044;-73
2023/04/20 05:05:26;;;;;;;25.63;19.30;;;;;;;;;;5031491;28;20049;-73
2023/04/20 05:08:31;;;;;;;30.05;18.35;;;;;;;;;;5030630;28;20044;-73
2023/04/20 05:11:35;;;;;;;27.42;16.98;;;12.60;99.90;;;;;;5031355;28;20044;-73
2023/04/20 05:14:39;;;;;;;20.45;15.25;;;12.80;99.90;;;;;;5031347;28;20064;-73
2023/04/20 05:17:43;;;;;;;27.65;16.27;;;13.00;99.90;;;;;;5031730;28;20041;-73
2023/04/20 05:20:47;;;;;;;28.63;17.17;;;13.40;99.90;;;;;;5031449;28;20070;-59
2023/04/20 05:23:51;;;;;;;27.23;18.70;;;13.70;99.90;;;;;;5030385;28;20650;-59
2023/04/20 05:26:54;;;;;;;31.67;20.48;;;12.20;99.90;;;;;;5029943;28;20503;-59
2023/04/20 05:29:59;;;;;;;106.63;57.45;;;;;;;;;;5031378;28;20049;-59
2023/04/20 05:33:03;;;;;;;110.53;60.40;;;;;;;;;;5031173;28;20040;-59
2023/04/20 05:36:09;;;;;;;122.82;58.45;;;16.30;98.00;;;;;;5031186;28;20057;-59
2023/04/20 05:39:12;;;;;;;60.47;37.83;;;14.50;96.80;;;;;;5030810;28;20040;-59
2023/04/20 05:42:17;;;;;;;61.72;35.22;;;;;;;;;;5030894;28;20053;-59
2023/04/20 05:45:21;;;;;;;55.28;32.50;;;16.30;97.00;;;;;;5031038;28;20116;-59
2023/04/20 05:48:26;;;;;;;61.33;37.15;;;16.60;97.40;;;;;;5030908;28;20048;-59
2023/04/20 05:51:32;;;;;;;50.85;32.08;;;16.50;97.30;;;;;;5031221;28;20045;-59
2023/04/20 05:54:36;;;;;;;42.35;25.25;;;16.30;97.60;;;;;;5031099;28;20400;-59
2023/04/20 05:57:43;;;;;;;39.05;22.65;;;16.30;98.10;;;;;;5031161;28;20049;-60
2023/04/20 06:00:46;;;;;;;42.08;20.67;;;16.30;98.50;;;;;;5031059;28;20048;-60
2023/04/20 06:03:50;;;;;;;37.28;19.58;;;16.40;98.30;;;;;;5030211;28;20393;-59
2023/04/20 06:06:55;;;;;;;31.42;18.10;;;16.60;98.10;;;;;;5029756;28;20044;-60
2023/04/20 06:10:00;;;;;;;32.85;18.02;;;16.50;97.90;;;;;;5028512;28;20041;-60
2023/04/20 06:13:04;;;;;;;27.02;18.48;;;16.60;98.00;;;;;;5030524;28;20472;-60
2023/04/20 06:16:09;;;;;;;36.97;19.40;;;16.80;98.50;;;;;;5030380;28;20060;-60
2023/04/20 06:19:13;;;;;;;27.55;17.23;;;17.10;97.60;;;;;;5030393;28;20041;-60
2023/04/20 06:22:18;;;;;;;31.30;17.83;;;17.30;97.60;;;;;;5030932;28;20504;-60
2023/04/20 06:25:22;;;;;;;31.60;19.55;;;17.60;96.70;;;;;;5030802;28;20060;-60
2023/04/20 06:28:25;;;;;;;30.75;17.50;;;17.70;96.60;;;;;;5030669;28;20397;-60
2023/04/20 06:31:29;;;;;;;33.45;17.52;;;17.80;96.70;;;;;;5030765;28;20048;-60
2023/04/20 06:34:33;;;;;;;36.13;20.30;;;18.20;96.30;;;;;;5030327;28;20056;-60
2023/04/20 06:37:37;;;;;;;34.55;19.20;;;18.40;95.80;;;;;;5030606;28;20472;-60
2023/04/20 06:40:41;;;;;;;27.85;18.15;;;18.70;95.60;;;;;;5030642;28;20059;-60
2023/04/20 06:43:45;;;;;;;26.63;17.67;;;18.90;95.00;;;;;;5030337;28;20096;-60
2023/04/20 06:46:49;;;;;;;27.40;17.30;;;18.90;94.80;;;;;;5030711;28;20044;-60
2023/04/20 06:49:53;;;;;;;27.15;17.35;;;18.70;94.70;;;;;;5030099;28;20049;-60
2023/04/20 06:52:56;;;;;;;35.58;16.67;;;18.60;95.20;;;;;;5030523;28;20400;-61
2023/04/20 06:56:01;;;;;;;30.13;16.77;;;19.00;95.40;;;;;;5030110;28;20072;-62
2023/04/20 06:59:05;;;;;;;22.30;16.25;;;19.20;94.30;;;;;;5030191;28;20040;-62
2023/04/20 07:02:09;;;;;;;30.38;16.02;;;19.20;94.20;;;;;;5030391;28;20052;-62
2023/04/20 07:05:14;;;;;;;19.38;14.35;;;19.40;94.10;;;;;;5030086;28;20045;-62
2023/04/20 07:08:19;;;;;;;22.30;15.07;;;19.20;94.20;;;;;;5029712;28;20056;-62
2023/04/20 07:11:23;;;;;;;22.73;13.68;;;19.30;94.10;;;;;;5029441;28;20053;-61
2023/04/20 07:14:27;;;;;;;19.85;12.80;;;19.70;94.10;;;;;;5030010;28;20500;-62
2023/04/20 07:17:31;;;;;;;41.15;15.40;;;19.80;93.30;;;;;;5028963;28;20425;-60
2023/04/20 07:20:35;;;;;;;22.35;14.48;;;19.60;93.60;;;;;;5030298;28;20401;-62
2023/04/20 07:23:40;;;;;;;17.27;12.07;;;19.80;94.10;;;;;;5029989;28;20064;-61
2023/04/20 07:26:44;;;;;;;14.63;11.27;;;19.90;94.00;;;;;;5030020;28;20048;-61
2023/04/20 07:29:51;;;;;;;14.32;12.32;;;20.30;94.10;;;;;;5029994;28;20048;-61
2023/04/20 07:32:55;;;;;;;15.30;10.73;;;20.50;93.30;;;;;;5033665;28;20048;-61
2023/04/20 07:35:59;;;;;;;15.05;10.02;;;20.50;93.30;;;;;;5033096;28;20053;-62
2023/04/20 07:39:04;;;;;;;12.77;10.00;;;20.40;93.70;;;;;;5033416;28;20504;-61
2023/04/20 07:42:07;;;;;;;12.30;7.80;;;20.30;93.50;;;;;;5033112;28;20057;-61
2023/04/20 07:45:12;;;;;;;11.52;8.98;;;20.30;93.70;;;;;;5033236;28;20044;-62
2023/04/20 07:48:16;;;;;;;7.88;7.07;;;20.50;93.20;;;;;;5032135;28;20048;-62
2023/04/20 07:51:20;;;;;;;17.10;10.10;;;20.20;93.10;;;;;;5032845;28;20048;-61
2023/04/20 07:54:24;;;;;;;15.70;9.75;;;20.10;94.10;;;;;;5033386;28;20376;-61
2023/04/20 07:57:28;;;;;;;14.18;9.68;;;20.40;94.00;;;;;;5033054;28;20045;-61
2023/04/20 08:00:35;;;;;;;16.65;11.75;;;20.90;93.80;;;;;;5033291;28;20041;-61
2023/04/20 08:03:40;;;;;;;15.68;10.98;;;21.20;92.50;;;;;;5033005;28;20057;-61
2023/04/20 08:06:44;;;;;;;13.13;11.23;;;21.30;92.10;;;;;;5032853;28;20044;-62
2023/04/20 08:09:48;;;;;;;17.88;10.70;;;21.40;92.10;;;;;;5032890;28;20060;-60
2023/04/20 08:12:53;;;;;;;20.67;11.50;;;21.60;92.10;;;;;;5032845;28;20041;-61
2023/04/20 08:15:56;;;;;;;19.15;10.65;;;21.70;91.10;;;;;;5032661;28;20128;-61
2023/04/20 08:19:02;;;;;;;12.93;9.20;;;21.70;91.10;;;;;;5032730;28;20041;-60
2023/04/20 08:22:06;;;;;;;15.68;10.82;;;21.80;91.00;;;;;;5032299;28;20044;-61
2023/04/20 08:25:10;;;;;;;12.40;11.07;;;21.70;90.30;;;;;;5032420;28;20045;-62
2023/04/20 08:28:15;;;;;;;18.15;11.15;;;21.60;90.50;;;;;;5032328;28;20048;-62
2023/04/20 08:31:20;;;;;;;12.88;9.52;;;21.60;90.80;;;;;;5032320;28;20056;-61
2023/04/20 08:34:24;;;;;;;15.10;11.45;;;21.60;90.60;;;;;;5031615;28;20441;-62
2023/04/20 08:37:27;;;;;;;20.52;9.75;;;21.50;89.80;;;;;;5032336;28;20544;-61
2023/04/20 08:40:32;;;;;;;9.88;8.35;;;21.20;89.30;;;;;;5032224;28;20040;-61
2023/04/20 08:43:36;;;;;;;11.30;8.02;;;21.20;90.90;;;;;;5031077;28;20056;-62
2023/04/20 08:46:45;;;;;;;11.35;8.52;;;21.40;90.70;;;;;;5032038;28;20053;-62
2023/04/20 08:49:53;;;;;;;17.55;10.30;;;21.50;90.40;;;;;;5032031;28;20040;-61
2023/04/20 08:52:58;;;;;;;14.55;8.90;;;21.50;90.00;;;;;;5031723;28;20045;-62
2023/04/20 08:56:03;;;;;;;15.95;9.48;;;21.40;89.80;;;;;;5031868;28;20060;-62
2023/04/20 08:59:11;;;;;;;13.35;8.13;;;21.20;88.30;;;;;;5032057;28;20184;-62
2023/04/20 09:02:15;;;;;;;10.98;7.57;;;21.10;88.50;;;;;;5031606;28;20393;-62
2023/04/20 09:05:33;;;;;;;8.55;7.13;;;21.00;89.30;;;;;;5032042;28;20041;-61
2023/04/20 09:08:41;;;;;;;13.07;10.13;;;21.00;89.60;;;;;;5031661;28;20044;-62
2023/04/20 09:11:46;;;;;;;13.00;9.55;;;21.00;88.40;;;;;;5031604;28;20040;-62
2023/04/20 09:14:51;;;;;;;13.48;9.63;;;20.70;89.10;;;;;;5031752;28;20052;-61
2023/04/20 09:17:55;;;;;;;12.35;10.20;;;20.60;89.00;;;;;;5031766;28;20049;-62
2023/04/20 09:21:10;;;;;;;11.15;8.60;;;20.50;88.80;;;;;;5031416;28;20045;-61
2023/04/20 09:24:14;;;;;;;12.35;9.23;;;20.30;89.40;;;;;;5031383;28;20049;-61
2023/04/20 09:27:20;;;;;;;10.35;7.18;;;20.40;88.20;;;;;;5031363;28;20052;-63
2023/04/20 09:30:35;;;;;;;9.63;7.00;;;20.50;88.00;;;;;;5031492;28;20044;-60
2023/04/20 09:33:40;;;;;;;12.52;8.27;;;20.60;87.30;;;;;;5031390;28;20048;-62
2023/04/20 09:36:46;;;;;;;8.23;5.10;;;20.90;86.30;;;;;;5029377;28;20064;-62
2023/04/20 09:39:50;;;;;;;8.70;6.13;;;21.00;86.40;;;;;;5029324;28;20048;-62
2023/04/20 09:42:57;;;;;;;8.43;5.95;;;21.10;84.80;;;;;;5029235;28;20060;-61
2023/04/20 09:46:02;;;;;;;7.50;6.18;;;21.20;83.40;;;;;;5030403;28;20044;-63
2023/04/20 09:49:08;;;;;;;17.50;6.40;;;20.80;82.00;;;;;;5030155;28;20045;-62
2023/04/20 09:52:19;;;;;;;10.32;8.07;;;20.70;82.80;;;;;;5031147;28;20044;-60
2023/04/20 09:55:25;;;;;;;8.63;6.07;;;20.80;86.80;;;;;;5030821;28;20044;-61
2023/04/20 09:58:31;;;;;;;8.18;6.22;;;21.10;87.40;;;;;;5030490;28;20559;-61
2023/04/20 10:01:36;;;;;;;9.82;7.65;;;21.30;87.10;;;;;;5030888;28;20064;-61
2023/04/20 10:05:28;;;;;;;13.20;7.38;;;21.50;85.80;;;;;;5030494;28;20048;-60
2023/04/20 10:08:41;;;;;;;9.32;8.20;;;21.70;85.90;;;;;;5030742;28;20048;-61
2023/04/20 10:11:44;;;;;;;11.75;8.13;;;21.90;84.90;;;;;;5030453;28;20040;-62
2023/04/20 10:14:55;;;;;;;9.90;7.68;;;21.90;83.70;;;;;;5030629;28;20049;-61
2023/04/20 10:17:59;;;;;;;10.60;8.02;;;21.90;84.80;;;;;;5030438;28;20052;-61
2023/04/20 10:21:07;;;;;;;9.95;8.18;;;22.00;84.40;;;;;;5029664;28;20045;-62
2023/04/20 10:24:11;;;;;;;12.90;8.05;;;22.20;84.30;;;;;;5030568;28;20056;-61
2023/04/20 10:27:20;;;;;;;8.00;6.95;;;22.20;83.70;;;;;;5030685;28;20057;-60
2023/04/20 10:30:25;;;;;;;14.43;7.25;;;22.30;84.50;;;;;;5030369;28;20041;-59
2023/04/20 10:33:29;;;;;;;17.08;9.18;;;22.40;83.60;;;;;;5030354;28;20124;-59
2023/04/20 10:36:36;;;;;;;8.48;6.78;;;22.50;83.00;;;;;;5029700;28;20053;-60
2023/04/20 10:39:45;;;;;;;13.52;9.60;;;22.50;83.60;;;;;;5030098;28;20056;-61
2023/04/20 10:42:49;;;;;;;11.43;7.97;;;22.30;81.80;;;;;;5029840;28;20063;-61
2023/04/20 10:45:53;;;;;;;12.50;8.57;;;22.40;82.90;;;;;;5029382;28;20068;-61
2023/04/20 10:49:02;;;;;;;16.52;10.80;;;22.30;82.10;;;;;;5030377;28;20377;-61
2023/04/20 10:52:06;;;;;;;11.35;9.48;;;22.40;81.70;;;;;;5030019;28;20538;-61
2023/04/20 10:55:24;;;;;;;9.90;8.25;;;22.30;81.60;;;;;;5030289;28;20065;-62
2023/04/20 10:58:28;;;;;;;13.48;8.90;;;22.30;82.20;;;;;;5030032;28;20056;-62
2023/04/20 11:01:32;;;;;;;9.63;8.40;;;22.30;81.80;;;;;;5030086;28;20036;-62
2023/04/20 11:04:36;;;;;;;10.20;8.20;;;22.20;81.70;;;;;;5029986;28;20056;-62
2023/04/20 11:07:54;;;;;;;12.50;7.30;;;22.00;83.10;;;;;;5033945;28;20050;-62
2023/04/20 11:10:58;;;;;;;11.85;9.25;;;22.10;84.50;;;;;;5033806;28;20393;-62
2023/04/20 11:14:10;;;;;;;17.85;8.93;;;22.20;84.00;;;;;;5032942;28;20049;-62
2023/04/20 11:17:14;;;;;;;9.23;7.63;;;22.10;83.30;;;;;;5033910;28;20416;-61
2023/04/20 11:20:18;;;;;;;11.18;7.57;;;22.10;82.60;;;;;;5034216;28;20052;-61
2023/04/20 11:23:26;;;;;;;17.65;8.20;;;22.10;83.80;;;;;;5033857;28;20068;-62
2023/04/20 11:26:36;;;;;;;13.45;9.25;;;22.20;84.20;;;;;;5033558;28;20036;-62
2023/04/20 11:29:40;;;;;;;12.93;9.80;;;22.20;82.30;;;;;;5034542;28;20385;-61
2023/04/20 11:32:53;;;;;;;9.13;6.45;;;22.20;82.50;;;;;;5033962;28;20049;-62
2023/04/20 11:35:58;;;;;;;11.40;8.70;;;22.10;82.60;;;;;;5033607;28;20052;-62
2023/04/20 11:39:12;;;;;;;12.10;8.88;;;22.10;82.00;;;;;;5033477;28;20045;-62
2023/04/20 11:42:17;;;;;;;9.00;6.85;;;22.10;81.60;;;;;;5034099;28;20061;-62
2023/04/20 11:45:22;;;;;;;11.80;8.60;;;22.10;83.00;;;;;;5033867;28;20056;-62
2023/04/20 11:48:30;;;;;;;9.25;7.53;;;22.20;83.20;;;;;;5033792;28;20040;-62
2023/04/20 11:51:33;;;;;;;8.57;7.00;;;22.20;83.00;;;;;;5033448;28;20507;-62
2023/04/20 11:54:37;;;;;;;13.02;9.30;;;22.20;83.70;;;;;;5033254;28;20049;-62
2023/04/20 11:57:42;;;;;;;10.50;7.65;;;22.30;84.50;;;;;;5033394;28;20056;-62
2023/04/20 12:00:46;;;;;;;9.48;8.15;;;22.40;83.80;;;;;;5033586;28;20056;-61
2023/04/20 12:03:50;;;;;;;16.17;9.77;;;22.40;83.50;;;;;;5033397;28;20039;-62
2023/04/20 12:06:56;;;;;;;7.78;6.35;;;22.30;82.10;;;;;;5033177;28;20044;-61
2023/04/20 12:10:00;;;;;;;9.35;6.45;;;22.20;82.70;;;;;;5033216;28;20040;-61
2023/04/20 12:13:04;;;;;;;12.32;7.35;;;22.10;83.00;;;;;;5033088;28;20167;-61
2023/04/20 12:16:09;;;;;;;10.13;8.15;;;22.00;83.10;;;;;;5032732;28;20532;-61
2023/04/20 12:19:13;;;;;;;9.60;7.57;;;21.80;82.10;;;;;;5033037;28;20052;-61
2023/04/20 12:22:16;;;;;;;11.48;8.45;;;21.80;82.50;;;;;;5031950;28;20044;-61
2023/04/20 12:25:20;;;;;;;11.65;7.93;;;21.80;82.00;;;;;;5032784;28;20041;-60
2023/04/20 12:28:25;;;;;;;7.75;6.13;;;21.80;82.20;;;;;;5032417;28;20500;-61
2023/04/20 12:31:29;;;;;;;10.05;7.15;;;21.80;82.10;;;;;;5031471;28;20052;-62
2023/04/20 12:34:33;;;;;;;9.57;6.03;;;21.90;80.90;;;;;;5029885;28;20044;-61
2023/04/20 12:37:37;;;;;;;10.30;7.07;;;22.00;81.60;;;;;;5029359;28;20052;-61
2023/04/20 12:40:41;;;;;;;7.18;5.72;;;22.10;81.30;;;;;;5030972;28;20045;-61
2023/04/20 12:43:44;;;;;;;12.32;7.18;;;22.10;80.60;;;;;;5031591;28;20416;-61
2023/04/20 12:46:49;;;;;;;14.07;7.28;;;22.20;80.10;;;;;;5031690;28;20048;-60
2023/04/20 12:49:53;;;;;;;9.52;6.28;;;22.20;78.90;;;;;;5032164;28;20401;-61
2023/04/20 12:52:57;;;;;;;7.45;6.05;;;22.10;78.40;;;;;;5032581;28;20048;-61
2023/04/20 12:56:03;;;;;;;9.05;5.53;;;22.10;79.30;;;;;;5032177;28;20045;-61
2023/04/20 12:59:08;;;;;;;7.50;6.38;;;22.10;79.50;;;;;;5031935;28;20045;-61
2023/04/20 13:02:12;;;;;;;8.82;7.40;;;22.20;79.60;;;;;;5032138;28;20052;-61
2023/04/20 13:05:16;;;;;;;13.10;7.68;;;22.20;78.60;;;;;;5031871;28;20045;-61
2023/04/20 13:08:20;;;;;;;11.00;7.40;;;22.10;79.10;;;;;;5031753;28;20040;-62
2023/04/20 13:11:24;;;;;;;8.18;5.85;;;22.10;79.90;;;;;;5031931;28;20041;-61
2023/04/20 13:14:28;;;;;;;9.80;6.10;;;22.10;80.00;;;;;;5031858;28;20045;-61
2023/04/20 13:17:32;;;;;;;8.98;6.45;;;22.10;80.50;;;;;;5031417;28;20056;-60
2023/04/20 13:20:36;;;;;;;12.50;6.88;;;22.10;80.00;;;;;;5031689;28;20040;-60
2023/04/20 13:23:40;;;;;;;15.80;7.10;;;22.10;79.70;;;;;;5032066;28;20499;-61
2023/04/20 13:26:44;;;;;;;10.25;6.40;;;22.10;79.50;;;;;;5031714;28;20049;-61
2023/04/20 13:29:48;;;;;;;15.75;6.60;;;22.10;79.00;;;;;;5030741;28;20416;-61
2023/04/20 13:32:52;;;;;;;6.82;5.10;;;22.10;79.10;;;;;;5031619;28;20036;-61
2023/04/20 13:35:56;;;;;;;6.75;5.30;;;22.00;79.60;;;;;;5031387;28;20045;-61
2023/04/20 13:39:00;;;;;;;8.52;6.20;;;22.00;79.60;;;;;;5031360;28;20049;-61
2023/04/20 13:42:05;;;;;;;7.00;5.38;;;22.10;79.40;;;;;;5031460;28;20507;-61
2023/04/20 13:45:09;;;;;;;8.98;6.75;;;22.00;79.00;;;;;;5031541;28;20056;-61
2023/04/20 13:48:13;;;;;;;9.63;5.75;;;22.00;79.10;;;;;;5031254;28;20440;-61
2023/04/20 13:51:17;;;;;;;9.43;5.70;;;22.00;79.00;;;;;;5031623;28;20048;-61
2023/04/20 13:54:21;;;;;;;8.07;6.00;;;22.00;78.60;;;;;;5031397;28;20511;-61
2023/04/20 13:57:24;;;;;;;10.25;5.60;;;22.00;78.80;;;;;;5030987;28;20075;-61
2023/04/20 14:00:28;;;;;;;17.00;6.60;;;22.00;78.90;;;;;;5031089;28;20068;-61
2023/04/20 14:03:32;;;;;;;16.42;6.50;;;22.00;78.80;;;;;;5030931;28;20365;-61
2023/04/20 14:06:37;;;;;;;9.00;5.70;;;22.00;78.00;;;;;;5030245;28;20044;-60
2023/04/20 14:09:43;;;;;;;8.32;5.35;;;21.90;78.50;;;;;;5030786;28;20404;-60
2023/04/20 14:12:47;;;;;;;13.63;6.10;;;21.90;79.20;;;;;;5031088;28;20527;-60
2023/04/20 14:15:52;;;;;;;12.55;5.72;;;21.80;79.30;;;;;;5030910;28;20048;-60
2023/04/20 14:18:56;;;;;;;11.07;5.45;;;21.80;79.50;;;;;;5030767;28;20052;-61
2023/04/20 14:22:00;;;;;;;7.20;5.68;;;21.80;79.60;;;;;;5031290;28;20500;-61
2023/04/20 14:25:05;;;;;;;10.80;5.53;;;21.80;79.50;;;;;;5030922;28;20044;-61
2023/04/20 14:28:09;;;;;;;6.10;4.28;;;21.70;79.10;;;;;;5030893;28;20147;-61
2023/04/20 14:31:13;;;;;;;7.18;4.68;;;21.70;79.60;;;;;;5031169;28;20048;-61
2023/04/20 14:34:17;;;;;;;10.60;5.18;;;21.70;79.50;;;;;;5030731;28;20049;-60
2023/04/20 14:37:23;;;;;;;14.57;6.13;;;21.70;78.90;;;;;;5030463;28;20072;-60
2023/04/20 14:40:28;;;;;;;7.05;4.88;;;21.60;79.00;;;;;;5033112;28;20044;-60
2023/04/20 14:43:35;;;;;;;6.82;4.50;;;21.60;78.70;;;;;;5033713;28;20076;-61
2023/04/20 14:46:39;;;;;;;10.40;5.65;;;21.60;79.60;;;;;;5034445;28;20048;-61
2023/04/20 14:49:44;;;;;;;5.07;4.28;;;21.60;78.80;;;;;;5034392;28;20049;-61
2023/04/20 14:52:47;;;;;;;8.07;4.05;;;21.60;79.00;;;;;;5034345;28;20064;-61
2023/04/20 14:55:51;;;;;;;10.23;5.25;;;21.60;79.30;;;;;;5034558;28;20056;-61
2023/04/20 14:58:56;;;;;;;10.35;5.35;;;21.50;77.40;;;;;;5033795;28;20401;-61
2023/04/20 15:02:00;;;;;;;4.97;4.20;;;21.40;77.30;;;;;;5034178;28;20395;-61
2023/04/20 15:05:05;;;;;;;5.68;4.72;;;21.40;77.40;;;;;;5033183;28;20052;-62
2023/04/20 15:08:10;;;;;;;9.15;5.53;;;21.40;77.80;;;;;;5034076;28;20053;-62
2023/04/20 15:11:14;;;;;;;13.15;5.95;;;21.40;78.20;;;;;;5034404;28;20041;-61
2023/04/20 15:14:19;;;;;;;11.65;5.70;;;21.30;76.30;;;;;;5034193;28;20044;-61
2023/04/20 15:17:24;;;;;;;8.55;4.85;;;21.30;77.00;;;;;;5033732;28;20060;-62
2023/04/20 15:20:28;;;;;;;6.45;4.65;;;21.30;77.00;;;;;;5034187;28;20048;-60
2023/04/20 15:23:32;;;;;;;7.43;4.70;;;21.30;77.30;;;;;;5034232;28;20052;-63
2023/04/20 15:26:36;;;;;;;10.93;4.63;;;21.30;76.80;;;;;;5034114;28;20504;-62
2023/04/20 15:29:40;;;;;;;8.13;4.30;;;21.20;77.30;;;;;;5034073;28;20443;-61
2023/04/20 15:32:44;;;;;;;7.22;4.35;;;21.20;76.90;;;;;;5034072;28;20048;-59
2023/04/20 15:35:49;;;;;;;8.93;4.78;;;21.20;75.90;;;;;;5033808;28;20404;-60
2023/04/20 15:38:53;;;;;;;7.65;4.00;;;21.10;75.90;;;;;;5033674;28;20052;-60
2023/04/20 15:41:58;;;;;;;7.30;4.20;;;21.10;75.40;;;;;;5033520;28;20061;-61
2023/04/20 15:45:02;;;;;;;6.05;3.95;;;21.00;75.90;;;;;;5033902;28;20412;-60
2023/04/20 15:48:07;;;;;;;13.65;4.95;;;21.10;76.80;;;;;;5033452;28;20044;-61
2023/04/20 15:51:11;;;;;;;7.57;4.30;;;21.00;76.00;;;;;;5033011;28;20060;-61
2023/04/20 15:54:15;;;;;;;8.05;4.40;;;21.00;75.50;;;;;;5033355;28;20044;-60
2023/04/20 15:57:19;;;;;;;9.10;4.63;;;20.90;76.00;;;;;;5033086;28;20068;-61
2023/04/20 16:00:24;;;;;;;9.52;3.80;;;21.00;75.50;;;;;;5033284;28;20048;-61